sensor_id;sensor_type;location;lat;lon;timestamp;P1;durP1;ratioP1;P2;durP2;ratioP2
2211;SDS011;48849;48.758;9.158;2023-05-07T00:01:47;6.20;;;5.60;;
2211;SDS011;48849;48.758;9.158;2023-05-07T00:04:19;6.13;;;5.63;;
2211;SDS011;48849;48.758;9.158;2023-05-07T00:07:02;5.72;;;4.60;;
2211;SDS011;48849;48.758;9.158;2023-05-07T00:09:31;4.82;;;4.32;;
2211;SDS011;48849;48.758;9.158;2023-05-07T00:12:06;5.18;;;4.68;;
2211;SDS011;48849;48.758;9.158;2023-05-07T00:14:52;8.70;;;4.57;;
2211;SDS011;48849;48.758;9.158;2023-05-07T00:17:30;5.30;;;4.90;;
2211;SDS011;48849;48.758;9.158;2023-05-07T00:20:01;4.97;;;4.10;;
2211;SDS011;48849;48.758;9.158;2023-05-07T00:22:33;5.25;;;4.80;;
2211;SDS011;48849;48.758;9.158;2023-05-07T00:25:00;5.50;;;4.88;;
2211;SDS011;48849;48.758;9.158;2023-05-07T00:27:29;5.40;;;4.53;;
2211;SDS011;48849;48.758;9.158;2023-05-07T00:29:56;5.88;;;4.30;;
2211;SDS011;48849;48.758;9.158;2023-05-07T00:32:23;5.65;;;4.97;;
2211;SDS011;48849;48.758;9.158;2023-05-07T00:34:51;4.88;;;4.47;;
2211;SDS011;48849;48.758;9.158;2023-05-07T00:37:20;5.22;;;4.63;;
2211;SDS011;48849;48.758;9.158;2023-05-07T00:39:50;6.20;;;4.50;;
2211;SDS011;48849;48.758;9.158;2023-05-07T00:42:19;4.85;;;4.32;;
2211;SDS011;48849;48.758;9.158;2023-05-07T00:44:46;5.20;;;4.45;;
2211;SDS011;48849;48.758;9.158;2023-05-07T00:47:18;4.10;;;3.70;;
2211;SDS011;48849;48.758;9.158;2023-05-07T00:50:09;5.22;;;4.75;;
2211;SDS011;48849;48.758;9.158;2023-05-07T00:52:46;4.50;;;4.10;;
2211;SDS011;48849;48.758;9.158;2023-05-07T00:55:21;6.47;;;4.93;;
2211;SDS011;48849;48.758;9.158;2023-05-07T00:57:52;5.80;;;4.20;;
2211;SDS011;48849;48.758;9.158;2023-05-07T01:00:54;7.38;;;4.05;;
2211;SDS011;48849;48.758;9.158;2023-05-07T01:03:15;4.65;;;3.95;;
2211;SDS011;48849;48.758;9.158;2023-05-07T01:05:53;4.85;;;4.35;;
2211;SDS011;48849;48.758;9.158;2023-05-07T01:08:41;4.78;;;4.38;;
2211;SDS011;48849;48.758;9.158;2023-05-07T01:11:32;5.78;;;4.22;;
2211;SDS011;48849;48.758;9.158;2023-05-07T01:14:04;4.70;;;4.05;;
2211;SDS011;48849;48.758;9.158;2023-05-07T01:16:50;4.40;;;4.00;;
2211;SDS011;48849;48.758;9.158;2023-05-07T01:19:32;7.22;;;4.20;;
2211;SDS011;48849;48.758;9.158;2023-05-07T01:25:16;5.35;;;4.85;;
2211;SDS011;48849;48.758;9.158;2023-05-07T01:27:47;5.40;;;4.90;;
2211;SDS011;48849;48.758;9.158;2023-05-07T01:30:16;8.98;;;4.18;;
2211;SDS011;48849;48.758;9.158;2023-05-07T01:32:56;6.55;;;4.85;;
2211;SDS011;48849;48.758;9.158;2023-05-07T01:37:15;5.70;;;4.90;;
2211;SDS011;48849;48.758;9.158;2023-05-07T01:39:47;5.80;;;5.03;;
2211;SDS011;48849;48.758;9.158;2023-05-07T01:42:24;5.95;;;4.75;;
2211;SDS011;48849;48.758;9.158;2023-05-07T01:44:57;4.60;;;4.20;;
2211;SDS011;48849;48.758;9.158;2023-05-07T01:47:26;6.63;;;5.18;;
2211;SDS011;48849;48.758;9.158;2023-05-07T01:50:03;6.18;;;4.57;;
2211;SDS011;48849;48.758;9.158;2023-05-07T01:52:39;5.60;;;5.00;;
2211;SDS011;48849;48.758;9.158;2023-05-07T01:55:23;5.85;;;4.60;;
2211;SDS011;48849;48.758;9.158;2023-05-07T01:57:54;6.75;;;5.03;;
2211;SDS011;48849;48.758;9.158;2023-05-07T02:00:30;4.82;;;4.43;;
2211;SDS011;48849;48.758;9.158;2023-05-07T02:03:01;7.38;;;5.25;;
2211;SDS011;48849;48.758;9.158;2023-05-07T02:05:30;5.45;;;4.80;;
2211;SDS011;48849;48.758;9.158;2023-05-07T02:08:01;5.07;;;4.55;;
2211;SDS011;48849;48.758;9.158;2023-05-07T02:10:36;6.03;;;4.93;;
2211;SDS011;48849;48.758;9.158;2023-05-07T02:13:11;5.28;;;4.47;;
2211;SDS011;48849;48.758;9.158;2023-05-07T02:15:38;6.50;;;4.65;;
2211;SDS011;48849;48.758;9.158;2023-05-07T02:18:12;6.10;;;5.50;;
2211;SDS011;48849;48.758;9.158;2023-05-07T02:20:41;6.35;;;5.75;;
2211;SDS011;48849;48.758;9.158;2023-05-07T02:23:16;7.28;;;5.30;;
2211;SDS011;48849;48.758;9.158;2023-05-07T02:25:45;5.97;;;4.90;;
2211;SDS011;48849;48.758;9.158;2023-05-07T02:28:20;6.90;;;5.70;;
2211;SDS011;48849;48.758;9.158;2023-05-07T02:30:49;6.03;;;4.63;;
2211;SDS011;48849;48.758;9.158;2023-05-07T02:33:18;6.20;;;5.60;;
2211;SDS011;48849;48.758;9.158;2023-05-07T02:35:45;5.10;;;4.60;;
2211;SDS011;48849;48.758;9.158;2023-05-07T02:38:13;7.60;;;5.50;;
2211;SDS011;48849;48.758;9.158;2023-05-07T02:40:40;5.55;;;4.90;;
2211;SDS011;48849;48.758;9.158;2023-05-07T02:43:07;5.05;;;4.65;;
2211;SDS011;48849;48.758;9.158;2023-05-07T02:45:34;6.25;;;5.65;;
2211;SDS011;48849;48.758;9.158;2023-05-07T02:48:03;8.43;;;5.15;;
2211;SDS011;48849;48.758;9.158;2023-05-07T02:50:31;5.53;;;4.95;;
2211;SDS011;48849;48.758;9.158;2023-05-07T02:52:58;6.70;;;4.90;;
2211;SDS011;48849;48.758;9.158;2023-05-07T02:55:26;5.70;;;5.20;;
2211;SDS011;48849;48.758;9.158;2023-05-07T02:57:52;5.22;;;4.72;;
2211;SDS011;48849;48.758;9.158;2023-05-07T03:00:20;8.52;;;5.38;;
2211;SDS011;48849;48.758;9.158;2023-05-07T03:02:47;5.40;;;4.90;;
2211;SDS011;48849;48.758;9.158;2023-05-07T03:05:14;5.70;;;5.20;;
2211;SDS011;48849;48.758;9.158;2023-05-07T03:07:41;5.72;;;4.63;;
2211;SDS011;48849;48.758;9.158;2023-05-07T03:10:10;5.35;;;4.80;;
2211;SDS011;48849;48.758;9.158;2023-05-07T03:12:38;5.20;;;4.70;;
2211;SDS011;48849;48.758;9.158;2023-05-07T03:15:05;6.47;;;5.22;;
2211;SDS011;48849;48.758;9.158;2023-05-07T03:17:33;5.65;;;5.15;;
2211;SDS011;48849;48.758;9.158;2023-05-07T03:20:00;5.90;;;5.30;;
2211;SDS011;48849;48.758;9.158;2023-05-07T03:22:26;5.22;;;4.82;;
2211;SDS011;48849;48.758;9.158;2023-05-07T03:24:53;5.70;;;4.30;;
2211;SDS011;48849;48.758;9.158;2023-05-07T03:27:23;5.22;;;4.82;;
2211;SDS011;48849;48.758;9.158;2023-05-07T03:29:51;6.32;;;5.05;;
2211;SDS011;48849;48.758;9.158;2023-05-07T03:32:18;5.65;;;5.15;;
2211;SDS011;48849;48.758;9.158;2023-05-07T03:34:45;5.75;;;4.72;;
2211;SDS011;48849;48.758;9.158;2023-05-07T03:37:12;5.07;;;4.60;;
2211;SDS011;48849;48.758;9.158;2023-05-07T03:39:38;4.95;;;4.47;;
2211;SDS011;48849;48.758;9.158;2023-05-07T03:42:05;5.20;;;4.70;;
2211;SDS011;48849;48.758;9.158;2023-05-07T03:44:32;6.28;;;4.57;;
2211;SDS011;48849;48.758;9.158;2023-05-07T03:47:00;5.55;;;4.85;;
2211;SDS011;48849;48.758;9.158;2023-05-07T03:49:34;5.32;;;4.82;;
2211;SDS011;48849;48.758;9.158;2023-05-07T03:52:04;5.10;;;4.70;;
2211;SDS011;48849;48.758;9.158;2023-05-07T03:54:38;4.70;;;4.30;;
2211;SDS011;48849;48.758;9.158;2023-05-07T03:57:05;4.85;;;4.28;;
2211;SDS011;48849;48.758;9.158;2023-05-07T03:59:43;5.57;;;4.35;;
2211;SDS011;48849;48.758;9.158;2023-05-07T04:02:13;6.82;;;4.65;;
2211;SDS011;48849;48.758;9.158;2023-05-07T04:04:50;12.20;;;4.90;;
2211;SDS011;48849;48.758;9.158;2023-05-07T04:07:19;5.50;;;5.00;;
2211;SDS011;48849;48.758;9.158;2023-05-07T04:09:46;5.70;;;4.70;;
2211;SDS011;48849;48.758;9.158;2023-05-07T04:12:15;5.35;;;4.72;;
2211;SDS011;48849;48.758;9.158;2023-05-07T04:14:43;5.07;;;4.57;;
2211;SDS011;48849;48.758;9.158;2023-05-07T04:17:19;5.40;;;4.50;;
2211;SDS011;48849;48.758;9.158;2023-05-07T04:19:47;4.75;;;4.00;;
2211;SDS011;48849;48.758;9.158;2023-05-07T04:22:14;5.35;;;4.22;;
2211;SDS011;48849;48.758;9.158;2023-05-07T04:24:46;7.15;;;4.78;;
2211;SDS011;48849;48.758;9.158;2023-05-07T04:27:19;4.85;;;4.30;;
2211;SDS011;48849;48.758;9.158;2023-05-07T04:29:46;4.60;;;4.20;;
2211;SDS011;48849;48.758;9.158;2023-05-07T04:32:15;5.88;;;4.55;;
2211;SDS011;48849;48.758;9.158;2023-05-07T04:34:45;4.22;;;3.92;;
2211;SDS011;48849;48.758;9.158;2023-05-07T04:37:14;5.18;;;4.53;;
2211;SDS011;48849;48.758;9.158;2023-05-07T04:39:44;5.80;;;4.93;;
2211;SDS011;48849;48.758;9.158;2023-05-07T04:42:14;4.50;;;4.10;;
2211;SDS011;48849;48.758;9.158;2023-05-07T04:44:41;4.50;;;4.10;;
2211;SDS011;48849;48.758;9.158;2023-05-07T04:47:10;6.30;;;4.35;;
2211;SDS011;48849;48.758;9.158;2023-05-07T04:49:41;4.50;;;4.10;;
2211;SDS011;48849;48.758;9.158;2023-05-07T04:52:07;4.38;;;4.03;;
2211;SDS011;48849;48.758;9.158;2023-05-07T04:54:34;5.15;;;4.65;;
2211;SDS011;48849;48.758;9.158;2023-05-07T04:57:03;8.88;;;4.22;;
2211;SDS011;48849;48.758;9.158;2023-05-07T04:59:29;4.40;;;4.00;;
2211;SDS011;48849;48.758;9.158;2023-05-07T05:01:56;4.80;;;4.40;;
2211;SDS011;48849;48.758;9.158;2023-05-07T05:04:23;4.57;;;3.80;;
2211;SDS011;48849;48.758;9.158;2023-05-07T05:06:52;4.30;;;3.85;;
2211;SDS011;48849;48.758;9.158;2023-05-07T05:09:18;5.13;;;4.63;;
2211;SDS011;48849;48.758;9.158;2023-05-07T05:11:45;4.38;;;4.00;;
2211;SDS011;48849;48.758;9.158;2023-05-07T05:14:12;4.68;;;4.28;;
2211;SDS011;48849;48.758;9.158;2023-05-07T05:16:38;6.28;;;4.40;;
2211;SDS011;48849;48.758;9.158;2023-05-07T05:19:05;5.10;;;4.22;;
2211;SDS011;48849;48.758;9.158;2023-05-07T05:21:32;5.28;;;4.78;;
2211;SDS011;48849;48.758;9.158;2023-05-07T05:24:00;4.80;;;4.40;;
2211;SDS011;48849;48.758;9.158;2023-05-07T05:26:26;4.68;;;4.20;;
2211;SDS011;48849;48.758;9.158;2023-05-07T05:28:53;4.43;;;4.13;;
2211;SDS011;48849;48.758;9.158;2023-05-07T05:31:20;4.82;;;3.83;;
2211;SDS011;48849;48.758;9.158;2023-05-07T05:33:47;4.95;;;4.47;;
2211;SDS011;48849;48.758;9.158;2023-05-07T05:36:13;5.07;;;3.90;;
2211;SDS011;48849;48.758;9.158;2023-05-07T05:38:40;7.20;;;3.97;;
2211;SDS011;48849;48.758;9.158;2023-05-07T05:41:08;4.28;;;3.92;;
2211;SDS011;48849;48.758;9.158;2023-05-07T05:43:35;5.22;;;3.70;;
2211;SDS011;48849;48.758;9.158;2023-05-07T05:46:02;5.38;;;4.22;;
2211;SDS011;48849;48.758;9.158;2023-05-07T05:48:29;4.68;;;4.28;;
2211;SDS011;48849;48.758;9.158;2023-05-07T05:50:56;4.57;;;4.18;;
2211;SDS011;48849;48.758;9.158;2023-05-07T05:53:23;6.43;;;4.78;;
2211;SDS011;48849;48.758;9.158;2023-05-07T05:55:49;4.22;;;3.83;;
2211;SDS011;48849;48.758;9.158;2023-05-07T05:58:18;4.95;;;4.55;;
2211;SDS011;48849;48.758;9.158;2023-05-07T06:00:45;4.03;;;3.70;;
2211;SDS011;48849;48.758;9.158;2023-05-07T06:03:13;5.75;;;4.45;;
2211;SDS011;48849;48.758;9.158;2023-05-07T06:05:40;6.43;;;4.35;;
2211;SDS011;48849;48.758;9.158;2023-05-07T06:08:06;5.00;;;4.55;;
2211;SDS011;48849;48.758;9.158;2023-05-07T06:10:33;6.78;;;4.05;;
2211;SDS011;48849;48.758;9.158;2023-05-07T06:13:01;4.20;;;3.90;;
2211;SDS011;48849;48.758;9.158;2023-05-07T06:15:32;4.50;;;4.10;;
2211;SDS011;48849;48.758;9.158;2023-05-07T06:17:59;4.53;;;3.70;;
2211;SDS011;48849;48.758;9.158;2023-05-07T06:20:26;4.25;;;3.72;;
2211;SDS011;48849;48.758;9.158;2023-05-07T06:22:53;3.85;;;3.45;;
2211;SDS011;48849;48.758;9.158;2023-05-07T06:25:21;4.63;;;3.70;;
2211;SDS011;48849;48.758;9.158;2023-05-07T06:27:53;4.28;;;3.97;;
2211;SDS011;48849;48.758;9.158;2023-05-07T06:30:20;3.58;;;3.28;;
2211;SDS011;48849;48.758;9.158;2023-05-07T06:32:51;4.45;;;4.05;;
2211;SDS011;48849;48.758;9.158;2023-05-07T06:35:23;4.00;;;3.70;;
2211;SDS011;48849;48.758;9.158;2023-05-07T06:37:52;4.18;;;3.78;;
2211;SDS011;48849;48.758;9.158;2023-05-07T06:40:19;3.70;;;3.40;;
2211;SDS011;48849;48.758;9.158;2023-05-07T06:42:46;4.50;;;4.07;;
2211;SDS011;48849;48.758;9.158;2023-05-07T06:45:12;3.67;;;3.38;;
2211;SDS011;48849;48.758;9.158;2023-05-07T06:47:39;4.50;;;4.10;;
2211;SDS011;48849;48.758;9.158;2023-05-07T06:50:08;4.13;;;3.70;;
2211;SDS011;48849;48.758;9.158;2023-05-07T06:52:44;4.03;;;3.60;;
2211;SDS011;48849;48.758;9.158;2023-05-07T06:55:13;4.05;;;3.55;;
2211;SDS011;48849;48.758;9.158;2023-05-07T06:57:48;5.88;;;2.92;;
2211;SDS011;48849;48.758;9.158;2023-05-07T07:03:39;3.50;;;3.20;;
2211;SDS011;48849;48.758;9.158;2023-05-07T07:06:14;4.50;;;4.10;;
2211;SDS011;48849;48.758;9.158;2023-05-07T07:08:44;4.07;;;3.70;;
2211;SDS011;48849;48.758;9.158;2023-05-07T07:11:13;4.53;;;4.00;;
2211;SDS011;48849;48.758;9.158;2023-05-07T07:13:57;4.65;;;3.70;;
2211;SDS011;48849;48.758;9.158;2023-05-07T07:16:37;4.75;;;4.28;;
2211;SDS011;48849;48.758;9.158;2023-05-07T07:19:07;5.72;;;3.90;;
2211;SDS011;48849;48.758;9.158;2023-05-07T07:21:36;4.63;;;3.90;;
2211;SDS011;48849;48.758;9.158;2023-05-07T07:24:15;7.07;;;4.00;;
2211;SDS011;48849;48.758;9.158;2023-05-07T07:30:08;5.45;;;4.13;;
2211;SDS011;48849;48.758;9.158;2023-05-07T07:32:44;4.30;;;3.75;;
2211;SDS011;48849;48.758;9.158;2023-05-07T07:35:30;5.00;;;4.07;;
2211;SDS011;48849;48.758;9.158;2023-05-07T07:37:58;4.25;;;3.85;;
2211;SDS011;48849;48.758;9.158;2023-05-07T07:43:50;3.90;;;3.20;;
2211;SDS011;48849;48.758;9.158;2023-05-07T07:46:19;5.20;;;3.45;;
2211;SDS011;48849;48.758;9.158;2023-05-07T07:48:45;3.67;;;3.05;;
2211;SDS011;48849;48.758;9.158;2023-05-07T07:51:12;3.42;;;2.97;;
2211;SDS011;48849;48.758;9.158;2023-05-07T07:53:40;4.40;;;4.00;;
2211;SDS011;48849;48.758;9.158;2023-05-07T07:56:08;4.72;;;3.97;;
2211;SDS011;48849;48.758;9.158;2023-05-07T07:58:35;3.80;;;3.50;;
2211;SDS011;48849;48.758;9.158;2023-05-07T08:07:51;4.20;;;3.80;;
2211;SDS011;48849;48.758;9.158;2023-05-07T08:10:47;4.55;;;4.15;;
2211;SDS011;48849;48.758;9.158;2023-05-07T08:13:15;4.30;;;3.90;;
2211;SDS011;48849;48.758;9.158;2023-05-07T08:15:43;3.92;;;3.53;;
2211;SDS011;48849;48.758;9.158;2023-05-07T08:18:09;4.60;;;4.00;;
2211;SDS011;48849;48.758;9.158;2023-05-07T08:20:40;4.50;;;4.20;;
2211;SDS011;48849;48.758;9.158;2023-05-07T08:23:07;5.72;;;3.90;;
2211;SDS011;48849;48.758;9.158;2023-05-07T08:25:34;4.33;;;3.93;;
2211;SDS011;48849;48.758;9.158;2023-05-07T08:28:06;4.80;;;4.10;;
2211;SDS011;48849;48.758;9.158;2023-05-07T08:30:33;4.88;;;4.38;;
2211;SDS011;48849;48.758;9.158;2023-05-07T08:33:00;4.70;;;4.30;;
2211;SDS011;48849;48.758;9.158;2023-05-07T08:35:29;5.07;;;4.65;;
2211;SDS011;48849;48.758;9.158;2023-05-07T08:37:55;5.60;;;4.40;;
2211;SDS011;48849;48.758;9.158;2023-05-07T08:40:27;4.65;;;4.20;;
2211;SDS011;48849;48.758;9.158;2023-05-07T08:42:54;5.20;;;4.60;;
2211;SDS011;48849;48.758;9.158;2023-05-07T08:45:41;4.50;;;4.10;;
2211;SDS011;48849;48.758;9.158;2023-05-07T08:48:14;5.27;;;4.40;;
2211;SDS011;48849;48.758;9.158;2023-05-07T08:50:41;5.45;;;3.80;;
2211;SDS011;48849;48.758;9.158;2023-05-07T08:53:08;5.00;;;4.60;;
2211;SDS011;48849;48.758;9.158;2023-05-07T08:55:35;4.43;;;4.00;;
2211;SDS011;48849;48.758;9.158;2023-05-07T08:58:02;4.85;;;4.47;;
2211;SDS011;48849;48.758;9.158;2023-05-07T09:00:29;3.53;;;3.27;;
2211;SDS011;48849;48.758;9.158;2023-05-07T09:02:57;6.13;;;4.27;;
2211;SDS011;48849;48.758;9.158;2023-05-07T09:05:24;3.80;;;3.50;;
2211;SDS011;48849;48.758;9.158;2023-05-07T09:07:50;7.93;;;4.93;;
2211;SDS011;48849;48.758;9.158;2023-05-07T09:10:17;3.83;;;3.53;;
2211;SDS011;48849;48.758;9.158;2023-05-07T09:12:46;4.47;;;3.93;;
2211;SDS011;48849;48.758;9.158;2023-05-07T09:15:13;4.57;;;4.17;;
2211;SDS011;48849;48.758;9.158;2023-05-07T09:17:39;4.50;;;3.87;;
2211;SDS011;48849;48.758;9.158;2023-05-07T09:20:09;4.93;;;4.10;;
2211;SDS011;48849;48.758;9.158;2023-05-07T09:22:36;3.93;;;3.53;;
2211;SDS011;48849;48.758;9.158;2023-05-07T09:25:03;4.50;;;4.10;;
2211;SDS011;48849;48.758;9.158;2023-05-07T09:27:31;4.30;;;3.90;;
2211;SDS011;48849;48.758;9.158;2023-05-07T09:29:58;4.10;;;3.80;;
2211;SDS011;48849;48.758;9.158;2023-05-07T09:32:25;3.80;;;3.50;;
2211;SDS011;48849;48.758;9.158;2023-05-07T09:34:52;4.43;;;4.03;;
2211;SDS011;48849;48.758;9.158;2023-05-07T09:37:27;4.70;;;4.10;;
2211;SDS011;48849;48.758;9.158;2023-05-07T09:39:56;9.43;;;4.70;;
2211;SDS011;48849;48.758;9.158;2023-05-07T09:42:28;3.80;;;3.50;;
2211;SDS011;48849;48.758;9.158;2023-05-07T09:44:55;4.50;;;3.70;;
2211;SDS011;48849;48.758;9.158;2023-05-07T09:47:23;4.13;;;3.80;;
2211;SDS011;48849;48.758;9.158;2023-05-07T09:49:54;4.00;;;3.60;;
2211;SDS011;48849;48.758;9.158;2023-05-07T09:52:23;3.70;;;3.40;;
2211;SDS011;48849;48.758;9.158;2023-05-07T09:54:54;4.10;;;3.70;;
2211;SDS011;48849;48.758;9.158;2023-05-07T09:57:25;3.80;;;3.50;;
2211;SDS011;48849;48.758;9.158;2023-05-07T09:59:53;4.87;;;3.97;;
2211;SDS011;48849;48.758;9.158;2023-05-07T10:02:22;3.90;;;3.50;;
2211;SDS011;48849;48.758;9.158;2023-05-07T10:04:52;4.10;;;3.73;;
2211;SDS011;48849;48.758;9.158;2023-05-07T10:07:20;5.20;;;3.50;;
2211;SDS011;48849;48.758;9.158;2023-05-07T10:09:47;3.63;;;2.70;;
2211;SDS011;48849;48.758;9.158;2023-05-07T10:12:17;5.23;;;3.47;;
2211;SDS011;48849;48.758;9.158;2023-05-07T10:14:44;3.60;;;3.27;;
2211;SDS011;48849;48.758;9.158;2023-05-07T10:17:13;6.77;;;3.07;;
2211;SDS011;48849;48.758;9.158;2023-05-07T10:19:42;3.40;;;3.10;;
2211;SDS011;48849;48.758;9.158;2023-05-07T10:22:10;4.30;;;3.00;;
2211;SDS011;48849;48.758;9.158;2023-05-07T10:24:39;3.77;;;3.17;;
2211;SDS011;48849;48.758;9.158;2023-05-07T10:27:07;4.50;;;4.07;;
2211;SDS011;48849;48.758;9.158;2023-05-07T10:29:39;6.83;;;3.97;;
2211;SDS011;48849;48.758;9.158;2023-05-07T10:32:14;3.90;;;3.30;;
2211;SDS011;48849;48.758;9.158;2023-05-07T10:34:55;5.97;;;3.30;;
2211;SDS011;48849;48.758;9.158;2023-05-07T10:37:23;8.13;;;3.47;;
2211;SDS011;48849;48.758;9.158;2023-05-07T10:39:51;4.30;;;3.30;;
2211;SDS011;48849;48.758;9.158;2023-05-07T10:42:18;3.60;;;3.30;;
2211;SDS011;48849;48.758;9.158;2023-05-07T10:44:46;2.70;;;2.50;;
2211;SDS011;48849;48.758;9.158;2023-05-07T10:47:13;3.20;;;2.73;;
2211;SDS011;48849;48.758;9.158;2023-05-07T10:52:43;6.93;;;3.20;;
2211;SDS011;48849;48.758;9.158;2023-05-07T10:55:19;4.90;;;3.60;;
2211;SDS011;48849;48.758;9.158;2023-05-07T10:57:49;3.30;;;3.00;;
2211;SDS011;48849;48.758;9.158;2023-05-07T11:03:22;3.23;;;2.93;;
2211;SDS011;48849;48.758;9.158;2023-05-07T11:06:08;2.83;;;2.63;;
2211;SDS011;48849;48.758;9.158;2023-05-07T11:15:37;3.60;;;3.30;;
2211;SDS011;48849;48.758;9.158;2023-05-07T11:21:33;3.70;;;3.40;;
2211;SDS011;48849;48.758;9.158;2023-05-07T11:24:01;3.63;;;3.33;;
2211;SDS011;48849;48.758;9.158;2023-05-07T11:26:42;4.17;;;3.77;;
2211;SDS011;48849;48.758;9.158;2023-05-07T11:29:15;4.40;;;4.00;;
2211;SDS011;48849;48.758;9.158;2023-05-07T11:31:43;4.30;;;3.90;;
2211;SDS011;48849;48.758;9.158;2023-05-07T11:34:15;3.97;;;3.60;;
2211;SDS011;48849;48.758;9.158;2023-05-07T11:36:47;4.30;;;3.90;;
2211;SDS011;48849;48.758;9.158;2023-05-07T11:39:28;4.73;;;3.77;;
2211;SDS011;48849;48.758;9.158;2023-05-07T11:42:00;7.70;;;5.33;;
2211;SDS011;48849;48.758;9.158;2023-05-07T11:44:41;5.83;;;5.33;;
2211;SDS011;48849;48.758;9.158;2023-05-07T11:47:09;4.73;;;4.33;;
2211;SDS011;48849;48.758;9.158;2023-05-07T11:49:48;4.90;;;4.50;;
2211;SDS011;48849;48.758;9.158;2023-05-07T11:55:25;7.07;;;4.90;;
2211;SDS011;48849;48.758;9.158;2023-05-07T11:57:57;5.20;;;4.70;;
2211;SDS011;48849;48.758;9.158;2023-05-07T12:00:47;5.60;;;5.10;;
2211;SDS011;48849;48.758;9.158;2023-05-07T12:03:22;5.73;;;5.23;;
2211;SDS011;48849;48.758;9.158;2023-05-07T12:06:03;5.40;;;4.90;;
2211;SDS011;48849;48.758;9.158;2023-05-07T12:08:40;5.60;;;4.70;;
2211;SDS011;48849;48.758;9.158;2023-05-07T12:14:28;4.38;;;3.90;;
2211;SDS011;48849;48.758;9.158;2023-05-07T12:41:15;10.57;;;6.20;;
2211;SDS011;48849;48.758;9.158;2023-05-07T12:43:43;25.15;;;8.80;;
2211;SDS011;48849;48.758;9.158;2023-05-07T12:46:12;19.20;;;7.87;;
2211;SDS011;48849;48.758;9.158;2023-05-07T13:09:41;8.52;;;3.83;;
2211;SDS011;48849;48.758;9.158;2023-05-07T13:15:26;4.78;;;3.05;;
2211;SDS011;48849;48.758;9.158;2023-05-07T13:18:10;5.43;;;3.40;;
2211;SDS011;48849;48.758;9.158;2023-05-07T13:20:37;4.25;;;3.30;;
2211;SDS011;48849;48.758;9.158;2023-05-07T13:23:11;4.95;;;3.10;;
2211;SDS011;48849;48.758;9.158;2023-05-07T13:25:42;5.57;;;3.10;;
2211;SDS011;48849;48.758;9.158;2023-05-07T13:28:12;6.47;;;3.75;;
2211;SDS011;48849;48.758;9.158;2023-05-07T13:30:42;6.20;;;3.20;;
2211;SDS011;48849;48.758;9.158;2023-05-07T13:33:09;4.97;;;3.58;;
2211;SDS011;48849;48.758;9.158;2023-05-07T13:35:36;6.90;;;3.45;;
2211;SDS011;48849;48.758;9.158;2023-05-07T13:38:03;4.30;;;3.47;;
2211;SDS011;48849;48.758;9.158;2023-05-07T13:40:30;5.18;;;3.53;;
2211;SDS011;48849;48.758;9.158;2023-05-07T13:42:59;6.47;;;3.40;;
2211;SDS011;48849;48.758;9.158;2023-05-07T13:45:32;6.60;;;3.60;;
2211;SDS011;48849;48.758;9.158;2023-05-07T13:48:01;4.00;;;3.65;;
2211;SDS011;48849;48.758;9.158;2023-05-07T13:50:32;5.40;;;3.25;;
2211;SDS011;48849;48.758;9.158;2023-05-07T13:53:03;7.78;;;3.75;;
2211;SDS011;48849;48.758;9.158;2023-05-07T13:55:43;6.70;;;3.30;;
2211;SDS011;48849;48.758;9.158;2023-05-07T13:58:35;5.38;;;2.88;;
2211;SDS011;48849;48.758;9.158;2023-05-07T14:01:04;3.45;;;2.30;;
2211;SDS011;48849;48.758;9.158;2023-05-07T14:06:55;3.35;;;2.88;;
2211;SDS011;48849;48.758;9.158;2023-05-07T14:09:25;3.80;;;3.08;;
2211;SDS011;48849;48.758;9.158;2023-05-07T14:14:59;3.80;;;2.95;;
2211;SDS011;48849;48.758;9.158;2023-05-07T14:17:35;3.90;;;3.23;;
2211;SDS011;48849;48.758;9.158;2023-05-07T14:27:09;4.60;;;3.58;;
2211;SDS011;48849;48.758;9.158;2023-05-07T14:29:36;4.38;;;3.97;;
2211;SDS011;48849;48.758;9.158;2023-05-07T14:35:28;5.05;;;3.97;;
2211;SDS011;48849;48.758;9.158;2023-05-07T14:37:59;6.80;;;4.10;;
2211;SDS011;48849;48.758;9.158;2023-05-07T14:40:41;6.32;;;3.60;;
2211;SDS011;48849;48.758;9.158;2023-05-07T14:43:17;5.40;;;3.90;;
2211;SDS011;48849;48.758;9.158;2023-05-07T14:45:52;9.05;;;4.50;;
2211;SDS011;48849;48.758;9.158;2023-05-07T14:48:38;4.93;;;3.65;;
2211;SDS011;48849;48.758;9.158;2023-05-07T14:51:05;5.32;;;4.15;;
2211;SDS011;48849;48.758;9.158;2023-05-07T14:53:32;6.38;;;3.67;;
2211;SDS011;48849;48.758;9.158;2023-05-07T14:55:59;4.00;;;3.60;;
2211;SDS011;48849;48.758;9.158;2023-05-07T14:58:26;3.72;;;3.30;;
2211;SDS011;48849;48.758;9.158;2023-05-07T15:00:52;3.40;;;3.10;;
2211;SDS011;48849;48.758;9.158;2023-05-07T15:03:19;3.83;;;3.35;;
2211;SDS011;48849;48.758;9.158;2023-05-07T15:05:48;5.18;;;3.35;;
2211;SDS011;48849;48.758;9.158;2023-05-07T15:08:16;3.33;;;2.95;;
2211;SDS011;48849;48.758;9.158;2023-05-07T15:10:43;6.15;;;3.22;;
2211;SDS011;48849;48.758;9.158;2023-05-07T15:13:10;4.10;;;3.70;;
2211;SDS011;48849;48.758;9.158;2023-05-07T15:15:37;4.65;;;3.55;;
2211;SDS011;48849;48.758;9.158;2023-05-07T15:18:05;4.68;;;3.22;;
2211;SDS011;48849;48.758;9.158;2023-05-07T15:20:32;6.75;;;3.72;;
2211;SDS011;48849;48.758;9.158;2023-05-07T15:23:00;5.93;;;3.58;;
2211;SDS011;48849;48.758;9.158;2023-05-07T15:25:27;5.03;;;3.50;;
2211;SDS011;48849;48.758;9.158;2023-05-07T15:27:56;5.28;;;3.70;;
2211;SDS011;48849;48.758;9.158;2023-05-07T15:30:22;4.57;;;3.45;;
2211;SDS011;48849;48.758;9.158;2023-05-07T15:32:50;4.68;;;3.50;;
2211;SDS011;48849;48.758;9.158;2023-05-07T15:35:17;4.85;;;4.18;;
2211;SDS011;48849;48.758;9.158;2023-05-07T15:37:46;4.55;;;4.15;;
2211;SDS011;48849;48.758;9.158;2023-05-07T15:40:15;4.93;;;4.28;;
2211;SDS011;48849;48.758;9.158;2023-05-07T15:42:42;4.20;;;3.80;;
2211;SDS011;48849;48.758;9.158;2023-05-07T15:45:10;4.15;;;3.75;;
2211;SDS011;48849;48.758;9.158;2023-05-07T15:47:37;5.28;;;4.32;;
2211;SDS011;48849;48.758;9.158;2023-05-07T15:50:05;4.45;;;4.05;;
2211;SDS011;48849;48.758;9.158;2023-05-07T15:52:32;3.97;;;3.63;;
2211;SDS011;48849;48.758;9.158;2023-05-07T15:54:59;4.10;;;3.70;;
2211;SDS011;48849;48.758;9.158;2023-05-07T15:57:28;6.40;;;4.83;;
2211;SDS011;48849;48.758;9.158;2023-05-07T15:59:56;4.60;;;4.20;;
2211;SDS011;48849;48.758;9.158;2023-05-07T16:02:24;4.72;;;4.25;;
2211;SDS011;48849;48.758;9.158;2023-05-07T16:04:50;4.70;;;4.30;;
2211;SDS011;48849;48.758;9.158;2023-05-07T16:07:17;5.53;;;4.57;;
2211;SDS011;48849;48.758;9.158;2023-05-07T16:09:44;5.25;;;4.75;;
2211;SDS011;48849;48.758;9.158;2023-05-07T16:12:11;10.18;;;4.97;;
2211;SDS011;48849;48.758;9.158;2023-05-07T16:14:39;6.15;;;4.63;;
2211;SDS011;48849;48.758;9.158;2023-05-07T16:17:06;5.70;;;5.05;;
2211;SDS011;48849;48.758;9.158;2023-05-07T16:19:33;6.68;;;5.00;;
2211;SDS011;48849;48.758;9.158;2023-05-07T16:22:00;5.75;;;5.07;;
2211;SDS011;48849;48.758;9.158;2023-05-07T16:24:27;6.63;;;4.95;;
2211;SDS011;48849;48.758;9.158;2023-05-07T16:26:54;7.15;;;5.30;;
2211;SDS011;48849;48.758;9.158;2023-05-07T16:29:21;5.75;;;4.63;;
2211;SDS011;48849;48.758;9.158;2023-05-07T16:31:49;5.25;;;4.50;;
2211;SDS011;48849;48.758;9.158;2023-05-07T16:34:16;6.75;;;6.15;;
2211;SDS011;48849;48.758;9.158;2023-05-07T16:36:43;6.20;;;5.70;;
2211;SDS011;48849;48.758;9.158;2023-05-07T16:39:10;6.15;;;4.95;;
2211;SDS011;48849;48.758;9.158;2023-05-07T16:41:36;6.63;;;5.20;;
2211;SDS011;48849;48.758;9.158;2023-05-07T16:44:03;5.75;;;4.72;;
2211;SDS011;48849;48.758;9.158;2023-05-07T16:46:30;6.00;;;4.65;;
2211;SDS011;48849;48.758;9.158;2023-05-07T16:48:58;5.00;;;4.50;;
2211;SDS011;48849;48.758;9.158;2023-05-07T16:51:25;7.25;;;5.40;;
2211;SDS011;48849;48.758;9.158;2023-05-07T16:53:53;5.22;;;4.70;;
2211;SDS011;48849;48.758;9.158;2023-05-07T16:56:22;8.38;;;5.35;;
2211;SDS011;48849;48.758;9.158;2023-05-07T16:58:50;5.50;;;5.00;;
2211;SDS011;48849;48.758;9.158;2023-05-07T17:04:25;5.85;;;4.40;;
2211;SDS011;48849;48.758;9.158;2023-05-07T17:07:13;5.95;;;5.20;;
2211;SDS011;48849;48.758;9.158;2023-05-07T17:10:03;5.20;;;4.80;;
2211;SDS011;48849;48.758;9.158;2023-05-07T17:13:08;6.45;;;5.85;;